Time;durP1;ratioP1;P1;durP2;ratioP2;P2;SDS_P1;SDS_P2;PMS_P1;PMS_P2;Temp;Humidity;BMP_temperature;BMP_pressure;BME280_temperature;BME280_humidity;BME280_pressure;Samples;Min_cycle;Max_cycle;Signal;HPM_P1;HPM_P2
2023/03/13 00:00:57;;;;;;;31.75;21.42;;;77.60;2227.20;;;;;;5051688;28;20032;-77
2023/03/13 00:03:23;;;;;;;57.13;35.75;;;77.70;2227.20;;;;;;5051213;28;20086;-76
2023/03/13 00:05:49;;;;;;;50.83;33.30;;;77.70;2227.20;;;;;;5051925;28;20582;-78
2023/03/13 00:08:14;;;;;;;56.55;35.95;;;77.70;2227.20;;;;;;5052110;28;20048;-78
2023/03/13 00:10:41;;;;;;;51.25;32.03;;;77.70;2227.20;;;;;;5051820;28;20052;-78
2023/03/13 00:13:07;;;;;;;51.83;32.85;;;77.60;2227.20;;;;;;5053444;28;20025;-81
2023/03/13 00:15:34;;;;;;;77.93;44.53;;;77.70;2227.20;;;;;;5052110;28;20468;-75
2023/03/13 00:17:59;;;;;;;61.38;36.83;;;77.70;2227.20;;;;;;5052388;28;20021;-79
2023/03/13 00:20:26;;;;;;;83.85;45.72;;;77.60;2227.20;;;;;;5051954;28;20039;-77
2023/03/13 00:22:52;;;;;;;72.95;43.15;;;77.50;2227.20;;;;;;5052099;28;20025;-77
2023/03/13 00:25:17;;;;;;;60.15;37.92;;;77.50;2227.20;;;;;;5051759;28;20040;-78
2023/03/13 00:27:43;;;;;;;57.83;36.92;;;77.60;2227.20;;;;;;5051103;28;20037;-77
2023/03/13 00:30:09;;;;;;;55.45;36.58;;;77.60;2227.20;;;;;;5051998;28;20036;-80
2023/03/13 00:32:45;;;;;;;48.88;29.95;;;77.60;2227.20;;;;;;5050632;28;20162;-78
2023/03/13 00:35:12;;;;;;;41.67;27.48;;;77.60;2227.20;;;;;;5052718;28;20120;-76
2023/03/13 00:37:38;;;;;;;41.78;26.20;;;77.60;2227.20;;;;;;5051572;28;20120;-78
2023/03/13 00:40:06;;;;;;;51.85;29.90;;;77.30;2227.20;;;;;;5052136;28;20120;-76
2023/03/13 00:42:32;;;;;;;58.33;36.38;;;77.50;2227.20;;;;;;5052406;28;20546;-77
2023/03/13 00:44:58;;;;;;;49.08;31.20;;;77.30;2227.20;;;;;;5051301;28;20025;-79
2023/03/13 00:47:24;;;;;;;42.47;25.85;;;77.20;2227.20;;;;;;5052862;28;20040;-79
2023/03/13 00:49:50;;;;;;;58.03;35.60;;;76.90;2227.20;;;;;;5055798;28;20087;-76
2023/03/13 00:52:16;;;;;;;41.97;26.23;;;52.00;2227.20;;;;;;5055930;28;20032;-78
2023/03/13 00:54:42;;;;;;;31.05;20.33;;;76.80;2227.20;;;;;;5056465;28;20021;-78
2023/03/13 00:57:08;;;;;;;31.02;18.15;;;51.90;2227.20;;;;;;5055780;28;20057;-81
2023/03/13 00:59:34;;;;;;;36.40;22.40;;;76.90;2227.20;;;;;;5055758;28;20053;-77
2023/03/13 01:02:00;;;;;;;37.80;22.33;;;76.90;2227.20;;;;;;5055092;28;20025;-78
2023/03/13 01:04:26;;;;;;;58.75;32.03;;;76.80;2227.20;;;;;;5055030;28;20032;-76
2023/03/13 01:06:51;;;;;;;62.60;36.63;;;76.90;2227.20;;;;;;5056414;28;20029;-78
2023/03/13 01:09:17;;;;;;;67.55;39.42;;;77.00;2227.20;;;;;;5055057;28;20092;-81
2023/03/13 01:11:44;;;;;;;75.40;43.30;;;76.90;2227.20;;;;;;5056847;28;20036;-79
2023/03/13 01:14:16;;;;;;;88.97;49.60;;;77.20;2227.20;;;;;;5056829;28;20095;-80
2023/03/13 01:16:42;;;;;;;97.20;54.50;;;77.20;2227.20;;;;;;5055323;28;20032;-78
2023/03/13 01:19:13;;;;;;;66.68;39.70;;;77.00;2227.20;;;;;;5056599;28;20407;-78
2023/03/13 01:21:40;;;;;;;55.40;32.25;;;76.80;2227.20;;;;;;5056940;28;20025;-79
2023/03/13 01:24:06;;;;;;;47.30;30.20;;;76.90;2227.20;;;;;;5054819;28;20027;-76
2023/03/13 01:26:31;;;;;;;44.80;28.35;;;76.90;2227.20;;;;;;5055295;28;20021;-77
2023/03/13 01:28:57;;;;;;;50.33;28.13;;;76.80;2227.20;;;;;;5054980;28;20051;-79
2023/03/13 01:31:29;;;;;;;36.25;24.30;;;76.80;2227.20;;;;;;5054728;28;20033;-79
2023/03/13 01:33:58;;;;;;;40.95;26.80;;;76.90;2227.20;;;;;;5055863;28;20028;-77
2023/03/13 01:36:25;;;;;;;61.97;34.05;;;77.10;2227.20;;;;;;5055143;28;20044;-77
2023/03/13 01:38:54;;;;;;;36.15;21.90;;;77.20;2227.20;;;;;;5055126;28;20040;-79
2023/03/13 01:41:20;;;;;;;31.15;22.58;;;77.00;2227.20;;;;;;5054972;28;20033;-76
2023/03/13 01:43:46;;;;;;;35.53;22.20;;;76.90;2227.20;;;;;;5054676;28;20029;-80
2023/03/13 01:46:20;;;;;;;47.05;27.73;;;77.20;2227.20;;;;;;5054999;28;20480;-78
2023/03/13 01:49:02;;;;;;;30.65;21.02;;;77.10;2227.20;;;;;;5054735;28;20039;-80
2023/03/13 01:51:37;;;;;;;41.78;26.45;;;51.80;2227.20;;;;;;5054444;28;20060;-77
2023/03/13 01:54:19;;;;;;;86.90;43.75;;;52.00;2227.20;;;;;;5054232;28;20029;-78
2023/03/13 01:56:59;;;;;;;90.40;43.80;;;52.00;2227.20;;;;;;5054837;28;20032;-75
2023/03/13 01:59:32;;;;;;;84.90;46.42;;;76.80;2227.20;;;;;;5054577;28;20022;-77
2023/03/13 02:02:01;;;;;;;69.65;40.33;;;76.90;2227.20;;;;;;5055921;28;20060;-79
2023/03/13 02:04:30;;;;;;;75.07;43.22;;;51.90;2227.20;;;;;;5054380;28;20056;-78
2023/03/13 02:07:01;;;;;;;77.55;44.42;;;52.00;2227.20;;;;;;5054585;28;20025;-77
2023/03/13 02:09:30;;;;;;;77.82;45.90;;;76.80;2227.20;;;;;;5054124;28;20049;-80
2023/03/13 02:12:16;;;;;;;61.55;33.50;;;52.10;2227.20;;;;;;5054372;28;20033;-76
2023/03/13 02:14:45;;;;;;;54.92;32.50;;;51.80;2227.20;;;;;;5056038;28;20099;-78
2023/03/13 02:17:12;;;;;;;63.97;36.08;;;51.90;2227.20;;;;;;5054249;28;20029;-78
2023/03/13 02:19:47;;;;;;;34.63;22.02;;;52.00;2227.20;;;;;;5053987;28;20033;-75
2023/03/13 02:22:22;;;;;;;42.28;27.15;;;52.00;2227.20;;;;;;5055006;28;20108;-77
2023/03/13 02:25:29;;;;;;;67.30;37.25;;;51.90;2227.20;;;;;;5053710;28;20124;-77
2023/03/13 02:27:59;;;;;;;73.65;42.42;;;52.00;2227.20;;;;;;5032328;28;20032;-77
2023/03/13 02:30:26;;;;;;;69.22;40.70;;;52.10;2227.20;;;;;;5054103;28;20029;-77
2023/03/13 02:32:52;;;;;;;73.85;42.00;;;51.80;2227.20;;;;;;5053926;28;20040;-76
2023/03/13 02:35:20;;;;;;;88.40;49.63;;;51.80;2227.20;;;;;;5053513;28;20025;-77
2023/03/13 02:37:51;;;;;;;44.80;25.05;;;51.90;2227.20;;;;;;5054986;28;20033;-77
2023/03/13 02:40:21;;;;;;;41.25;21.30;;;51.70;2227.20;;;;;;5054754;28;20036;-78
2023/03/13 02:42:49;;;;;;;46.83;26.60;;;51.70;2227.20;;;;;;5053286;28;20032;-76
2023/03/13 02:45:16;;;;;;;45.88;28.35;;;51.90;2227.20;;;;;;5053175;28;20028;-75
2023/03/13 02:47:43;;;;;;;52.42;32.22;;;51.80;2227.20;;;;;;5053619;28;20021;-77
2023/03/13 02:50:10;;;;;;;38.03;25.27;;;51.60;2227.20;;;;;;5047405;28;20428;-76
2023/03/13 02:52:41;;;;;;;34.17;20.88;;;51.70;2227.20;;;;;;5033951;28;20072;-79
2023/03/13 02:55:13;;;;;;;28.70;17.95;;;51.70;2227.20;;;;;;5033801;28;20022;-75
2023/03/13 02:57:38;;;;;;;27.92;18.40;;;51.70;2227.20;;;;;;5066383;28;20025;-77
2023/03/13 03:00:06;;;;;;;27.65;15.75;;;51.60;2227.20;;;;;;5032542;28;20048;-79
2023/03/13 03:02:32;;;;;;;26.48;16.77;;;51.20;2227.20;;;;;;5032602;28;20055;-77
2023/03/13 03:04:57;;;;;;;28.48;17.75;;;51.40;2227.20;;;;;;5032746;28;20033;-76
2023/03/13 03:07:23;;;;;;;35.35;20.73;;;51.40;2227.20;;;;;;5033214;28;20033;-77
2023/03/13 03:09:49;;;;;;;32.58;20.42;;;51.90;2227.20;;;;;;5032299;28;20041;-75
2023/03/13 03:12:15;;;;;;;49.78;27.58;;;51.60;2227.20;;;;;;5032337;28;20376;-77
2023/03/13 03:14:40;;;;;;;36.85;23.75;;;51.60;2227.20;;;;;;5034074;28;20053;-78
2023/03/13 03:17:06;;;;;;;39.85;23.90;;;51.60;2227.20;;;;;;5033378;28;20032;-77
2023/03/13 03:19:32;;;;;;;39.55;25.50;;;51.20;2227.20;;;;;;5032756;28;20025;-78
2023/03/13 03:21:58;;;;;;;25.00;16.10;;;26.30;2201.60;;;;;;5033078;28;20026;-76
2023/03/13 03:24:23;;;;;;;30.88;19.05;;;26.10;2201.60;;;;;;5033921;28;20516;-75
2023/03/13 03:26:49;;;;;;;31.58;19.92;;;25.80;2201.60;;;;;;5033108;28;20457;-79
2023/03/13 03:29:15;;;;;;;30.63;20.48;;;25.90;2201.60;;;;;;5050747;28;20029;-77
2023/03/13 03:31:40;;;;;;;35.95;22.80;;;26.10;2201.60;;;;;;5053564;28;20119;-78
2023/03/13 03:34:06;;;;;;;39.50;20.98;;;26.10;2201.60;;;;;;5051921;28;20460;-75
2023/03/13 03:36:32;;;;;;;30.30;18.88;;;26.30;2201.60;;;;;;5052804;28;20025;-79
2023/03/13 03:38:58;;;;;;;33.85;19.35;;;26.30;2201.60;;;;;;5053734;28;20472;-77
2023/03/13 03:41:23;;;;;;;35.72;19.73;;;51.20;2227.20;;;;;;5052874;28;20461;-78
2023/03/13 03:43:49;;;;;;;34.97;19.27;;;51.20;2227.20;;;;;;5052553;28;20376;-77
2023/03/13 03:46:15;;;;;;;53.90;29.77;;;26.40;2201.60;;;;;;5052794;28;20104;-77
2023/03/13 03:48:41;;;;;;;56.08;28.15;;;51.20;2227.20;;;;;;5053999;28;20357;-74
2023/03/13 03:51:07;;;;;;;63.05;31.60;;;51.30;2227.20;;;;;;5053617;28;20064;-78
2023/03/13 03:53:33;;;;;;;92.75;46.40;;;51.40;2227.20;;;;;;5052487;28;20025;-76
2023/03/13 03:56:00;;;;;;;97.22;50.42;;;51.30;2227.20;;;;;;5054005;28;20052;-77
2023/03/13 03:58:25;;;;;;;64.47;33.85;;;26.50;2201.60;;;;;;5053357;28;20464;-78
2023/03/13 04:00:51;;;;;;;43.70;27.13;;;26.20;2201.60;;;;;;5052503;28;20028;-76
2023/03/13 04:03:17;;;;;;;38.47;21.75;;;26.10;2201.60;;;;;;5051844;28;20029;-78
2023/03/13 04:05:43;;;;;;;36.55;22.13;;;26.20;2201.60;;;;;;5054060;28;20392;-75
2023/03/13 04:08:09;;;;;;;44.00;26.02;;;26.20;2201.60;;;;;;5051954;28;20021;-79
2023/03/13 04:10:35;;;;;;;36.83;21.02;;;26.20;2201.60;;;;;;5051816;28;20427;-78
2023/03/13 04:13:01;;;;;;;37.13;20.30;;;26.10;2201.60;;;;;;5051955;28;20025;-77
2023/03/13 04:15:27;;;;;;;39.55;23.13;;;26.00;2201.60;;;;;;5052140;28;20567;-80
2023/03/13 04:17:53;;;;;;;39.05;22.90;;;26.00;2201.60;;;;;;5051936;28;20029;-80
2023/03/13 04:20:18;;;;;;;41.00;23.10;;;26.10;2201.60;;;;;;5053682;28;20095;-78
2023/03/13 04:22:44;;;;;;;49.10;28.63;;;26.20;2201.60;;;;;;5053410;28;20040;-76
2023/03/13 04:25:10;;;;;;;42.75;25.02;;;26.20;2201.60;;;;;;5053540;28;20029;-80
2023/03/13 04:27:36;;;;;;;57.25;30.02;;;26.00;2201.60;;;;;;5052343;28;20456;-81
2023/03/13 04:30:03;;;;;;;65.80;34.33;;;26.00;2201.60;;;;;;5053006;28;20040;-79
2023/03/13 04:32:29;;;;;;;64.72;32.47;;;26.00;2201.60;;;;;;5053013;28;20022;-78
2023/03/13 04:34:55;;;;;;;46.33;27.70;;;25.80;2201.60;;;;;;5051205;28;20531;-79
2023/03/13 04:37:20;;;;;;;75.78;40.20;;;26.10;2201.60;;;;;;5052212;28;20061;-77
2023/03/13 04:39:46;;;;;;;88.03;40.90;;;26.10;2201.60;;;;;;5051419;28;20025;-79
2023/03/13 04:42:12;;;;;;;74.20;36.88;;;26.30;2201.60;;;;;;5051927;28;20044;-77
2023/03/13 04:44:38;;;;;;;79.00;40.92;;;26.30;2201.60;;;;;;5052003;28;20063;-79
2023/03/13 04:47:04;;;;;;;67.63;36.53;;;26.40;2201.60;;;;;;5051950;28;20120;-80
2023/03/13 04:49:30;;;;;;;72.55;37.50;;;51.20;2227.20;;;;;;5050365;28;20048;-80
2023/03/13 04:51:55;;;;;;;70.78;39.25;;;51.20;2227.20;;;;;;5064155;28;20134;-80
2023/03/13 04:54:21;;;;;;;97.03;54.72;;;26.30;2201.60;;;;;;5064544;28;20477;-79
2023/03/13 04:56:47;;;;;;;94.70;55.35;;;26.20;2201.60;;;;;;5064946;28;20034;-79
2023/03/13 04:59:14;;;;;;;108.75;60.30;;;26.30;2201.60;;;;;;5065490;28;20025;-77
2023/03/13 05:01:41;;;;;;;85.05;47.28;;;26.10;2201.60;;;;;;5065123;28;20499;-76
2023/03/13 05:04:07;;;;;;;85.43;40.60;;;25.80;2201.60;;;;;;5065114;28;20068;-79
2023/03/13 05:06:33;;;;;;;112.65;53.35;;;25.60;2201.60;;;;;;5031881;28;20029;-79
2023/03/13 05:08:59;;;;;;;109.40;52.78;;;25.90;2201.60;;;;;;5032980;28;20135;-79
2023/03/13 05:11:25;;;;;;;97.38;51.42;;;26.00;2201.60;;;;;;5065131;28;20167;-80
2023/03/13 05:13:50;;;;;;;108.75;53.17;;;26.00;2201.60;;;;;;5033138;28;20053;-79
2023/03/13 05:16:16;;;;;;;235.05;90.18;;;26.10;2201.60;;;;;;5065360;28;20037;-80
2023/03/13 05:18:42;;;;;;;102.28;52.45;;;25.70;2201.60;;;;;;5065193;28;20029;-80
2023/03/13 05:21:08;;;;;;;66.15;39.10;;;25.60;2201.60;;;;;;5064977;28;20041;-78
2023/03/13 05:23:33;;;;;;;55.35;35.53;;;25.80;2201.60;;;;;;5033200;28;20025;-79
2023/03/13 05:26:00;;;;;;;61.42;36.00;;;26.00;2201.60;;;;;;5065191;28;20036;-79
2023/03/13 05:28:25;;;;;;;69.15;37.33;;;25.80;2201.60;;;;;;5064957;28;20024;-79
2023/03/13 05:30:51;;;;;;;56.83;32.35;;;25.80;2201.60;;;;;;5032867;28;20034;-79
2023/03/13 05:33:18;;;;;;;54.67;35.97;;;25.80;2201.60;;;;;;5065278;28;20453;-78
2023/03/13 05:35:45;;;;;;;60.75;35.83;;;25.80;2201.60;;;;;;5068805;28;20447;-78
2023/03/13 05:38:11;;;;;;;93.18;46.70;;;25.60;2201.60;;;;;;5060292;28;20021;-76
2023/03/13 05:40:37;;;;;;;82.43;42.65;;;26.00;2201.60;;;;;;5093592;28;20133;-77
2023/03/13 05:43:03;;;;;;;51.20;30.55;;;25.90;2201.60;;;;;;5073508;28;20025;-79
2023/03/13 05:45:28;;;;;;;65.97;34.78;;;26.10;2201.60;;;;;;5072455;28;20030;-75
2023/03/13 05:47:54;;;;;;;63.65;39.20;;;26.10;2201.60;;;;;;5072997;28;20028;-80
2023/03/13 05:50:20;;;;;;;74.00;43.92;;;26.20;2201.60;;;;;;5074179;28;20040;-76
2023/03/13 05:52:46;;;;;;;84.95;51.58;;;26.30;2201.60;;;;;;5072470;28;20484;-78
2023/03/13 05:55:11;;;;;;;79.45;47.40;;;26.40;2201.60;;;;;;5068727;28;20519;-78
2023/03/13 05:57:38;;;;;;;67.90;40.42;;;26.40;2201.60;;;;;;5066739;28;20059;-77
2023/03/13 06:00:04;;;;;;;59.13;35.90;;;26.40;2201.60;;;;;;5034148;28;20031;-77
2023/03/13 06:02:30;;;;;;;170.68;87.97;;;26.40;2201.60;;;;;;5034263;28;20025;-79
2023/03/13 06:04:56;;;;;;;80.13;47.60;;;26.30;2201.60;;;;;;5034510;28;20588;-77
2023/03/13 06:07:21;;;;;;;60.28;38.22;;;26.50;2201.60;;;;;;5067946;28;20056;-78
2023/03/13 06:09:47;;;;;;;58.33;33.88;;;51.40;2227.20;;;;;;5033516;28;20409;-78
2023/03/13 06:12:13;;;;;;;40.20;25.40;;;51.40;2227.20;;;;;;5068132;28;20401;-79
2023/03/13 06:14:39;;;;;;;38.63;23.92;;;51.30;2227.20;;;;;;5067700;28;20480;-79
2023/03/13 06:17:05;;;;;;;36.15;24.33;;;26.40;2201.60;;;;;;5067743;28;20026;-79
2023/03/13 06:19:31;;;;;;;33.08;23.60;;;26.50;2201.60;;;;;;5067578;28;20120;-77
2023/03/13 06:21:57;;;;;;;35.88;22.80;;;51.20;2227.20;;;;;;5067745;28;20475;-80
2023/03/13 06:24:23;;;;;;;38.17;24.23;;;51.30;2227.20;;;;;;5067503;28;20032;-76
2023/03/13 06:26:49;;;;;;;40.78;25.17;;;51.40;2227.20;;;;;;5067065;28;20075;-79
2023/03/13 06:29:16;;;;;;;122.20;64.68;;;51.50;2227.20;;;;;;5053349;28;20032;-77
2023/03/13 06:31:42;;;;;;;64.82;39.42;;;51.60;2227.20;;;;;;5053326;28;20029;-80
2023/03/13 06:34:10;;;;;;;84.90;61.90;;;51.70;2227.20;;;;;;5053193;28;20036;-79
2023/03/13 06:36:36;;;;;;;54.17;36.97;;;51.50;2227.20;;;;;;5054027;28;20021;-78
2023/03/13 06:39:02;;;;;;;65.05;38.63;;;51.30;2227.20;;;;;;5053242;28;20086;-77
2023/03/13 06:41:28;;;;;;;45.08;27.45;;;51.20;2227.20;;;;;;5053361;28;20389;-77
2023/03/13 06:43:54;;;;;;;38.78;23.08;;;51.50;2227.20;;;;;;5054001;28;20025;-79
2023/03/13 06:46:23;;;;;;;29.48;19.23;;;51.40;2227.20;;;;;;5054900;28;20104;-78
2023/03/13 06:48:49;;;;;;;33.03;21.92;;;51.50;2227.20;;;;;;5053960;28;20029;-79
2023/03/13 06:51:18;;;;;;;37.92;25.08;;;51.60;2227.20;;;;;;5053562;28;20388;-78
2023/03/13 06:53:44;;;;;;;35.17;21.73;;;51.60;2227.20;;;;;;5053671;28;20029;-78
2023/03/13 06:56:10;;;;;;;44.30;25.30;;;51.80;2227.20;;;;;;5053699;28;20024;-78
2023/03/13 06:58:36;;;;;;;37.30;21.88;;;51.70;2227.20;;;;;;5053396;28;20033;-80
2023/03/13 07:01:20;;;;;;;32.92;22.33;;;51.80;2227.20;;;;;;5053758;28;20040;-80
2023/03/13 07:03:47;;;;;;;38.13;23.83;;;51.90;2227.20;;;;;;5053719;28;20051;-77
2023/03/13 07:06:14;;;;;;;36.05;23.10;;;52.10;2227.20;;;;;;5053187;28;20115;-79
2023/03/13 07:08:40;;;;;;;40.03;24.88;;;52.10;2227.20;;;;;;5054699;28;20021;-78
2023/03/13 07:11:08;;;;;;;37.40;23.52;;;76.80;2227.20;;;;;;5053200;28;20036;-76
2023/03/13 07:13:34;;;;;;;33.13;19.95;;;52.10;2227.20;;;;;;5053169;28;20465;-80
2023/03/13 07:16:03;;;;;;;37.83;22.05;;;76.80;2227.20;;;;;;5054312;28;20028;-79
2023/03/13 07:18:29;;;;;;;43.33;24.48;;;52.00;2227.20;;;;;;5086649;28;20112;-79
2023/03/13 07:20:57;;;;;;;30.98;19.65;;;52.10;2227.20;;;;;;5053210;28;20036;-78
2023/03/13 07:23:24;;;;;;;28.77;17.63;;;76.80;2227.20;;;;;;5052905;28;20033;-80
2023/03/13 07:26:14;;;;;;;49.95;30.25;;;52.10;2227.20;;;;;;5053223;28;20029;-76
2023/03/13 07:28:40;;;;;;;37.65;22.17;;;52.10;2227.20;;;;;;5047419;28;20033;-76
2023/03/13 07:31:17;;;;;;;39.72;25.13;;;76.80;2227.20;;;;;;5052629;28;20032;-78
2023/03/13 07:33:44;;;;;;;51.30;31.17;;;77.10;2227.20;;;;;;5052538;28;20492;-75
2023/03/13 07:36:11;;;;;;;42.47;27.05;;;77.30;2227.20;;;;;;5053249;28;20020;-77
2023/03/13 07:38:37;;;;;;;34.83;21.67;;;77.40;2227.20;;;;;;5054297;28;20021;-81
2023/03/13 07:41:03;;;;;;;33.80;20.75;;;77.40;2227.20;;;;;;5054019;28;20037;-75
2023/03/13 07:43:30;;;;;;;37.92;22.25;;;77.40;2227.20;;;;;;5052680;28;20465;-76
2023/03/13 07:46:01;;;;;;;26.38;17.90;;;77.60;2227.20;;;;;;5052061;28;20021;-74
2023/03/13 07:48:32;;;;;;;25.35;17.55;;;77.70;2227.20;;;;;;5051997;28;20021;-80
2023/03/13 07:50:59;;;;;;;36.70;24.02;;;77.70;2227.20;;;;;;5053327;28;20032;-78
2023/03/13 07:53:25;;;;;;;23.92;18.17;;;102.50;2227.20;;;;;;5052204;28;20403;-74
2023/03/13 07:56:00;;;;;;;36.75;24.55;;;102.50;2227.20;;;;;;5051692;28;20071;-75
2023/03/13 07:58:29;;;;;;;23.92;17.15;;;102.60;2227.20;;;;;;5052301;28;20442;-75
2023/03/13 08:00:55;;;;;;;23.83;17.02;;;102.70;2227.20;;;;;;5053830;28;20029;-76
2023/03/13 08:03:22;;;;;;;19.65;14.20;;;102.80;2227.20;;;;;;5053730;28;20056;-74
2023/03/13 08:06:00;;;;;;;32.08;21.27;;;102.80;2227.20;;;;;;5052275;28;20125;-74
2023/03/13 08:08:26;;;;;;;18.80;13.88;;;102.90;2227.20;;;;;;5052367;28;20104;-74
2023/03/13 08:10:52;;;;;;;19.15;13.13;;;102.90;2227.20;;;;;;5057024;28;20070;-73
2023/03/13 08:13:17;;;;;;;19.95;14.70;;;103.00;2227.20;;;;;;5063337;28;20033;-75
2023/03/13 08:15:43;;;;;;;23.38;16.13;;;103.10;2227.20;;;;;;5063943;28;20032;-74
2023/03/13 08:18:09;;;;;;;22.75;16.70;;;103.20;2227.20;;;;;;5056094;28;20060;-74
2023/03/13 08:20:34;;;;;;;23.98;17.35;;;128.00;2252.80;;;;;;5068375;28;20032;-74
2023/03/13 08:23:00;;;;;;;24.77;19.00;;;128.10;2252.80;;;;;;5059302;28;20020;-74
2023/03/13 08:25:26;;;;;;;24.23;15.07;;;128.10;2252.80;;;;;;5062087;28;20017;-73
2023/03/13 08:27:51;;;;;;;21.73;15.75;;;128.20;2252.80;;;;;;5052778;28;20461;-74
2023/03/13 08:30:18;;;;;;;28.35;19.50;;;128.20;2252.80;;;;;;5051860;28;20033;-74
2023/03/13 08:32:43;;;;;;;21.40;15.68;;;128.30;2252.80;;;;;;5069018;28;20033;-74
2023/03/13 08:35:09;;;;;;;25.80;17.40;;;128.20;2252.80;;;;;;5058828;28;20024;-77
2023/03/13 08:37:35;;;;;;;29.25;19.50;;;128.30;2252.80;;;;;;5057074;28;20408;-73
2023/03/13 08:40:01;;;;;;;25.67;19.20;;;128.40;2252.80;;;;;;5053108;28;20044;-73
2023/03/13 08:42:27;;;;;;;27.50;20.73;;;128.60;2252.80;;;;;;5053236;28;20384;-74
2023/03/13 08:44:52;;;;;;;26.40;19.83;;;128.80;2252.80;;;;;;5066021;28;20020;-75
2023/03/13 08:47:18;;;;;;;30.50;22.63;;;128.70;2252.80;;;;;;5062838;28;20065;-75
2023/03/13 08:49:44;;;;;;;33.40;23.65;;;128.80;2252.80;;;;;;5061225;28;20025;-74
2023/03/13 08:52:10;;;;;;;28.48;20.70;;;128.90;2252.80;;;;;;5067154;28;20384;-75
2023/03/13 08:54:35;;;;;;;40.97;22.38;;;128.90;2252.80;;;;;;5053763;28;20486;-75
2023/03/13 08:57:01;;;;;;;30.00;22.55;;;128.90;2252.80;;;;;;5065988;28;20060;-76
2023/03/13 08:59:27;;;;;;;33.95;26.80;;;153.60;2252.80;;;;;;5060950;28;20031;-75
2023/03/13 09:01:53;;;;;;;32.45;20.73;;;153.70;2252.80;;;;;;5059275;28;20108;-74
2023/03/13 09:04:19;;;;;;;27.77;19.80;;;153.90;2252.80;;;;;;5067724;28;20119;-75
2023/03/13 09:06:44;;;;;;;24.88;17.50;;;154.00;2252.80;;;;;;5055627;28;20024;-76
2023/03/13 09:09:11;;;;;;;29.73;20.50;;;154.20;2252.80;;;;;;5064952;28;20067;-74
2023/03/13 09:11:38;;;;;;;22.60;16.52;;;154.10;2252.80;;;;;;5065994;28;20471;-77
2023/03/13 09:14:05;;;;;;;29.05;19.33;;;154.20;2252.80;;;;;;5060244;28;20083;-76
2023/03/13 09:16:32;;;;;;;26.67;19.92;;;154.40;2252.80;;;;;;5073716;28;20028;-75
2023/03/13 09:18:58;;;;;;;27.23;20.83;;;154.50;2252.80;;;;;;5070319;28;20025;-78
2023/03/13 09:21:30;;;;;;;17.83;14.18;;;179.20;2252.80;;;;;;5064520;28;20070;-75
2023/03/13 09:23:56;;;;;;;26.40;17.80;;;179.40;2252.80;;;;;;5075077;28;20029;-76
2023/03/13 09:26:22;;;;;;;22.77;16.17;;;179.40;2252.80;;;;;;5059533;28;20456;-77
2023/03/13 09:28:49;;;;;;;16.08;13.40;;;179.50;2252.80;;;;;;5070266;28;20052;-77
2023/03/13 09:31:28;;;;;;;18.60;13.80;;;179.80;2252.80;;;;;;5062779;28;20032;-76
2023/03/13 09:33:54;;;;;;;22.83;15.52;;;179.50;2252.80;;;;;;5062560;28;20469;-79
2023/03/13 09:36:22;;;;;;;21.25;14.55;;;179.60;2252.80;;;;;;5071296;28;20028;-78
2023/03/13 09:38:55;;;;;;;20.58;14.52;;;179.60;2252.80;;;;;;5059462;28;20026;-78
2023/03/13 09:42:01;;;;;;;20.85;14.98;;;179.70;2252.80;;;;;;5075759;28;20040;-77
2023/03/13 09:44:39;;;;;;;16.33;12.48;;;179.90;2252.80;;;;;;5057725;28;20032;-77
2023/03/13 09:47:08;;;;;;;19.52;13.45;;;180.10;2252.80;;;;;;5067116;28;20021;-78
2023/03/13 09:49:41;;;;;;;18.98;12.75;;;204.90;2252.80;;;;;;5063747;28;20024;-77
2023/03/13 09:52:27;;;;;;;20.85;13.00;;;205.10;2252.80;;;;;;5069579;28;20039;-77
2023/03/13 09:55:22;;;;;;;16.05;11.95;;;205.10;2252.80;;;;;;5043730;28;20029;-77
2023/03/13 09:57:58;;;;;;;18.88;13.48;;;205.00;2252.80;;;;;;5058006;28;20037;-76
2023/03/13 10:00:33;;;;;;;22.10;15.70;;;205.00;2252.80;;;;;;5070353;28;20029;-77
2023/03/13 10:03:26;;;;;;;15.90;12.15;;;205.10;2252.80;;;;;;5060296;28;20443;-79
2023/03/13 10:05:56;;;;;;;17.17;12.32;;;205.20;2252.80;;;;;;5060916;28;20380;-77
2023/03/13 10:08:24;;;;;;;17.48;10.40;;;205.20;2252.80;;;;;;5070516;28;20031;-76
2023/03/13 10:11:11;;;;;;;21.67;15.63;;;205.40;2252.80;;;;;;5058641;28;20087;-75
2023/03/13 10:13:42;;;;;;;19.95;14.23;;;205.40;2252.80;;;;;;5073773;28;20028;-75
2023/03/13 10:16:15;;;;;;;18.15;13.20;;;205.30;2252.80;;;;;;5058273;28;20472;-75
2023/03/13 10:18:47;;;;;;;20.58;14.43;;;205.20;2252.80;;;;;;5040964;28;20038;-76
2023/03/13 10:21:19;;;;;;;25.95;18.50;;;205.20;2252.80;;;;;;5064873;28;20357;-79
2023/03/13 10:24:04;;;;;;;19.58;12.48;;;205.40;2252.80;;;;;;5066328;28;20463;-79
2023/03/13 10:26:34;;;;;;;18.75;13.00;;;205.50;2252.80;;;;;;5057097;28;20056;-77
2023/03/13 10:29:22;;;;;;;21.45;15.15;;;205.60;2252.80;;;;;;5067593;28;20471;-77
2023/03/13 10:32:00;;;;;;;19.65;14.52;;;205.70;2252.80;;;;;;5066441;28;20032;-79
2023/03/13 10:34:28;;;;;;;11.75;9.32;;;230.40;2252.80;;;;;;5057152;28;20029;-77
2023/03/13 10:36:58;;;;;;;13.68;10.80;;;230.70;2252.80;;;;;;5068090;28;20461;-76
2023/03/13 10:39:29;;;;;;;22.92;14.25;;;230.80;2252.80;;;;;;5063031;28;20028;-76
2023/03/13 10:42:09;;;;;;;16.02;10.05;;;230.90;2252.80;;;;;;5059867;28;20029;-76
2023/03/13 10:44:36;;;;;;;13.18;8.95;;;231.00;2252.80;;;;;;5068246;28;20646;-78
2023/03/13 10:47:03;;;;;;;15.02;11.55;;;231.10;2252.80;;;;;;5059527;28;20035;-76
2023/03/13 10:49:30;;;;;;;15.38;11.80;;;231.10;2252.80;;;;;;5063154;28;20083;-79
2023/03/13 10:52:02;;;;;;;16.20;11.38;;;231.30;2252.80;;;;;;5067147;28;20032;-76
2023/03/13 10:54:36;;;;;;;13.88;9.43;;;256.00;2252.80;;;;;;5056661;28;20028;-80
2023/03/13 10:57:17;;;;;;;12.65;8.30;;;256.20;2227.20;;;;;;5068069;28;20071;-80
2023/03/13 10:59:46;;;;;;;13.85;9.80;;;256.60;2176.00;;;;;;5065388;28;20028;-81
2023/03/13 11:02:20;;;;;;;18.95;11.57;;;256.90;2176.00;;;;;;5056973;28;20039;-77
2023/03/13 11:04:50;;;;;;;13.07;9.25;;;281.70;2176.00;;;;;;5041228;28;20021;-79
2023/03/13 11:07:31;;;;;;;12.77;8.52;;;281.80;2124.80;;;;;;5064824;28;20021;-77
2023/03/13 11:10:00;;;;;;;17.77;13.25;;;282.10;2150.40;;;;;;5066687;28;20052;-77
2023/03/13 11:12:26;;;;;;;33.40;20.83;;;282.20;2150.40;;;;;;5057511;28;20033;-78
2023/03/13 11:14:59;;;;;;;33.90;25.17;;;282.20;2176.00;;;;;;5067609;28;20028;-77
2023/03/13 11:17:28;;;;;;;19.02;14.10;;;282.20;2150.40;;;;;;5062433;28;20468;-78
2023/03/13 11:20:22;;;;;;;25.63;16.63;;;282.50;2124.80;;;;;;5060385;28;20025;-79
2023/03/13 11:23:14;;;;;;;20.15;12.80;;;307.30;2150.40;;;;;;5056987;28;20468;-77
2023/03/13 11:26:06;;;;;;;17.65;13.35;;;307.70;2124.80;;;;;;5060955;28;20043;-77
2023/03/13 11:29:00;;;;;;;25.75;19.52;;;307.80;2073.60;;;;;;5069978;28;20048;-76
2023/03/13 11:31:37;;;;;;;17.55;12.25;;;308.00;2022.40;;;;;;5062638;28;20508;-75
2023/03/13 11:34:24;;;;;;;13.68;11.20;;;;;;;;;;5057857;28;20029;-76
2023/03/13 11:37:18;;;;;;;16.27;11.95;;;333.20;2048.00;;;;;;5043240;28;20016;-78
2023/03/13 11:40:16;;;;;;;12.68;8.70;;;333.60;2022.40;;;;;;5059987;28;20488;-76
2023/03/13 11:42:57;;;;;;;13.73;10.18;;;358.50;1996.80;;;;;;5055879;28;20066;-77
2023/03/13 11:45:34;;;;;;;14.77;9.05;;;358.60;1971.20;;;;;;5061002;28;20550;-76
2023/03/13 11:48:00;;;;;;;14.43;9.45;;;358.90;1945.60;;;;;;5067643;28;20095;-76
2023/03/13 11:50:36;;;;;;;13.85;10.27;;;358.80;1945.60;;;;;;5047889;28;20091;-77
2023/03/13 11:53:26;;;;;;;19.92;13.93;;;359.10;1920.00;;;;;;5065470;28;20020;-76
2023/03/13 11:56:33;;;;;;;15.75;10.27;;;358.80;1843.20;;;;;;5063625;28;20383;-78
2023/03/13 11:59:04;;;;;;;13.40;9.32;;;359.10;1843.20;;;;;;5034793;28;20399;-76
2023/03/13 12:01:36;;;;;;;15.20;10.77;;;359.20;1817.60;;;;;;5057977;28;20024;-77
2023/03/13 12:04:19;;;;;;;15.90;12.80;;;384.30;1817.60;;;;;;5055851;28;20175;-77
2023/03/13 12:07:01;;;;;;;13.38;9.45;;;384.70;1817.60;;;;;;5041168;28;20484;-75
2023/03/13 12:09:36;;;;;;;12.73;8.85;;;384.80;1740.80;;;;;;5062966;28;20045;-75
2023/03/13 12:12:16;;;;;;;12.60;9.93;;;384.90;1766.40;;;;;;5066574;28;20028;-79
2023/03/13 12:15:07;;;;;;;12.10;8.27;;;384.40;1740.80;;;;;;5040255;28;20031;-79
2023/03/13 12:17:37;;;;;;;15.60;8.45;;;409.70;1792.00;;;;;;5061217;28;20040;-78